Forsyth, Montana
Current Conditions -  °F | °C
As of 4:53 PM on Wednesday 28 Jan 2015 (Local Time) from KMLS Reporting Station
Overcast Overcast  
Wind Chill: 28°   Ceiling: 10000
Heat Index: 36°   Visibility: 10mi
Dew Point: 30°   Wind: 13mph
Humidity: 79%   Direction: 320°NW
Pressure: 30.25"   Gusts: NA
Location:  46.27°N, 106.68°W
Report Text: KMLS 282353Z AUTO 32011KT 10SM OVC100 02/M01 A3025 RMK AO2 SLP262 T00221011 10072 20022 51028
Loading
Personal Weather Stations






























Interactive Weather Map New forecast layout! Learn more

10-Day Weather Forecast

Advertisements
Track Severe Weather on mobile